Time;durP1;ratioP1;P1;durP2;ratioP2;P2;SDS_P1;SDS_P2;PMS_P1;PMS_P2;Temp;Humidity;BMP_temperature;BMP_pressure;BME280_temperature;BME280_humidity;BME280_pressure;Samples;Min_cycle;Max_cycle;Signal;HPM_P1;HPM_P2
2021/07/29 00:01:39;;;;;;;9.53;4.53;;;16.30;99.90;;;;;;5034219;28;20592;-68
2021/07/29 00:04:05;;;;;;;6.17;3.57;;;16.20;99.90;;;;;;5034158;28;20607;-68
2021/07/29 00:06:32;;;;;;;3.90;3.57;;;16.20;99.90;;;;;;5034146;28;20664;-68
2021/07/29 00:08:58;;;;;;;4.17;3.77;;;16.30;99.90;;;;;;5033734;28;20710;-68
2021/07/29 00:11:24;;;;;;;4.20;3.80;;;16.20;99.90;;;;;;5033790;28;20678;-68
2021/07/29 00:13:53;;;;;;;3.73;3.40;;;16.30;99.90;;;;;;5034188;28;20623;-69
2021/07/29 00:16:22;;;;;;;5.57;4.17;;;16.30;99.90;;;;;;5034040;28;20638;-69
2021/07/29 00:19:08;;;;;;;4.00;3.60;;;16.30;99.90;;;;;;5033477;28;20631;-69
2021/07/29 00:21:36;;;;;;;3.60;3.30;;;16.30;99.90;;;;;;5033605;28;21170;-69
2021/07/29 00:24:03;;;;;;;3.63;3.00;;;16.30;99.90;;;;;;5033498;28;20600;-69
2021/07/29 00:26:30;;;;;;;3.77;3.47;;;16.30;99.90;;;;;;5033917;28;20657;-68
2021/07/29 00:28:57;;;;;;;3.93;3.63;;;16.20;99.90;;;;;;5034355;28;20618;-69
2021/07/29 00:31:34;;;;;;;9.00;3.70;;;16.20;99.90;;;;;;5033833;28;20951;-68
2021/07/29 00:34:01;;;;;;;4.60;3.60;;;16.10;99.90;;;;;;5033939;28;20612;-69
2021/07/29 00:36:28;;;;;;;5.53;4.27;;;16.00;99.90;;;;;;5033811;28;21174;-69
2021/07/29 00:38:55;;;;;;;6.90;4.07;;;16.00;99.90;;;;;;5034047;28;20636;-69
2021/07/29 00:41:21;;;;;;;6.83;4.83;;;15.90;99.90;;;;;;5033862;28;20624;-69
2021/07/29 00:43:59;;;;;;;3.67;3.43;;;15.90;99.90;;;;;;5033752;28;21122;-69
2021/07/29 00:46:25;;;;;;;6.77;3.77;;;15.80;99.90;;;;;;5033407;28;20582;-69
2021/07/29 00:48:53;;;;;;;3.50;3.20;;;15.70;99.90;;;;;;5033574;28;21170;-69
2021/07/29 00:51:20;;;;;;;4.33;3.93;;;15.70;99.90;;;;;;5032097;28;20993;-69
2021/07/29 00:53:46;;;;;;;6.57;3.53;;;15.80;99.90;;;;;;5033499;28;20648;-69
2021/07/29 00:56:12;;;;;;;6.77;3.87;;;15.80;99.90;;;;;;5033630;28;20632;-69
2021/07/29 00:58:39;;;;;;;4.13;3.77;;;15.80;99.90;;;;;;5033565;28;20588;-68
2021/07/29 01:01:05;;;;;;;5.73;4.13;;;15.70;99.90;;;;;;5033715;28;20604;-68
2021/07/29 01:03:32;;;;;;;5.73;3.53;;;15.80;99.90;;;;;;5033612;28;20967;-69
2021/07/29 01:05:58;;;;;;;4.90;3.93;;;15.70;99.90;;;;;;5033628;28;20623;-69
2021/07/29 01:08:24;;;;;;;3.60;3.30;;;15.70;99.90;;;;;;5033547;28;20588;-69
2021/07/29 01:10:50;;;;;;;4.90;3.80;;;15.70;99.90;;;;;;5033616;28;20594;-69
2021/07/29 01:13:17;;;;;;;3.97;3.50;;;15.70;99.90;;;;;;5033409;28;20604;-69
2021/07/29 01:15:43;;;;;;;3.37;3.17;;;15.70;99.90;;;;;;5033315;28;20646;-69
2021/07/29 01:18:10;;;;;;;3.60;3.40;;;15.70;99.90;;;;;;5033223;28;20585;-69
2021/07/29 01:20:36;;;;;;;3.70;3.47;;;15.70;99.90;;;;;;5033413;28;20669;-67
2021/07/29 01:23:02;;;;;;;4.80;3.40;;;15.70;99.90;;;;;;5032943;28;20616;-66
2021/07/29 01:25:29;;;;;;;3.57;3.37;;;15.70;99.90;;;;;;5033166;28;20574;-66
2021/07/29 01:27:55;;;;;;;3.40;3.10;;;15.70;99.90;;;;;;5033184;28;20647;-69
2021/07/29 01:30:21;;;;;;;6.90;3.53;;;15.70;99.90;;;;;;5033363;28;20621;-69
2021/07/29 01:32:48;;;;;;;4.03;3.57;;;15.70;99.90;;;;;;5033275;28;21134;-69
2021/07/29 01:35:14;;;;;;;4.47;3.20;;;15.70;99.90;;;;;;5033302;28;20605;-69
2021/07/29 01:37:41;;;;;;;4.57;3.60;;;15.70;99.90;;;;;;5033150;28;20648;-69
2021/07/29 01:40:09;;;;;;;6.80;3.90;;;15.80;99.90;;;;;;5033051;28;20599;-68
2021/07/29 01:42:35;;;;;;;2.93;2.83;;;15.80;99.90;;;;;;5032970;28;20643;-69
2021/07/29 01:45:02;;;;;;;25.47;4.33;;;15.80;99.90;;;;;;5033227;28;20621;-69
2021/07/29 01:47:29;;;;;;;7.17;3.17;;;15.80;99.90;;;;;;5032057;28;20656;-69
2021/07/29 01:49:56;;;;;;;6.47;3.17;;;15.90;99.90;;;;;;5031887;28;20640;-66
2021/07/29 01:52:22;;;;;;;4.00;3.47;;;15.90;99.90;;;;;;5033385;28;20646;-66
2021/07/29 01:54:48;;;;;;;4.70;3.73;;;15.80;99.90;;;;;;5033115;28;20633;-67
2021/07/29 01:57:15;;;;;;;5.07;3.30;;;15.80;99.90;;;;;;5032922;28;20703;-66
2021/07/29 01:59:41;;;;;;;5.13;3.40;;;15.80;99.90;;;;;;5036362;28;20639;-68
2021/07/29 02:02:07;;;;;;;7.13;3.80;;;15.80;99.90;;;;;;5036752;28;20612;-67
2021/07/29 02:04:35;;;;;;;6.53;3.47;;;15.80;99.90;;;;;;5036351;28;20599;-67
2021/07/29 02:07:02;;;;;;;5.57;3.77;;;15.80;99.90;;;;;;5036733;28;20666;-67
2021/07/29 02:09:29;;;;;;;4.13;3.73;;;15.80;99.90;;;;;;5036165;28;20588;-67
2021/07/29 02:11:55;;;;;;;4.10;3.70;;;15.80;99.90;;;;;;5036490;28;20590;-67
2021/07/29 02:14:23;;;;;;;4.80;3.90;;;15.90;99.90;;;;;;5036328;28;20623;-67
2021/07/29 02:16:50;;;;;;;5.90;3.83;;;15.90;99.90;;;;;;5036304;28;20640;-67
2021/07/29 02:19:16;;;;;;;3.57;3.37;;;16.00;99.90;;;;;;5035906;28;21135;-67
2021/07/29 02:21:44;;;;;;;4.63;3.33;;;16.00;99.90;;;;;;5036246;28;20602;-67
2021/07/29 02:24:11;;;;;;;4.90;3.83;;;16.00;99.90;;;;;;5036283;28;20622;-67
2021/07/29 02:26:38;;;;;;;3.87;3.57;;;16.00;99.90;;;;;;5035602;28;20665;-67
2021/07/29 02:29:04;;;;;;;4.10;3.80;;;16.00;99.90;;;;;;5035729;28;20591;-68
2021/07/29 02:31:30;;;;;;;3.60;3.40;;;16.10;99.90;;;;;;5035684;28;20600;-67
2021/07/29 02:33:57;;;;;;;6.63;4.33;;;16.10;99.90;;;;;;5035571;28;20616;-67
2021/07/29 02:36:23;;;;;;;5.20;4.00;;;16.10;99.90;;;;;;5035909;28;20738;-67
2021/07/29 02:38:49;;;;;;;4.40;4.10;;;16.10;99.90;;;;;;5035705;28;20973;-67
2021/07/29 02:41:16;;;;;;;4.40;3.30;;;16.10;99.90;;;;;;5035539;28;20603;-68
2021/07/29 02:43:42;;;;;;;4.40;3.90;;;16.20;99.90;;;;;;5035615;28;20639;-68
2021/07/29 02:46:08;;;;;;;3.33;3.10;;;16.10;99.90;;;;;;5035981;28;20616;-67
2021/07/29 02:48:34;;;;;;;3.63;3.30;;;16.20;99.90;;;;;;5035425;28;20651;-67
2021/07/29 02:51:02;;;;;;;7.83;3.00;;;16.20;99.90;;;;;;5035585;28;20690;-67
2021/07/29 02:53:32;;;;;;;4.10;3.40;;;16.30;99.90;;;;;;5035203;28;20598;-67
2021/07/29 02:56:03;;;;;;;3.77;3.47;;;16.30;99.90;;;;;;5035488;28;20624;-67
2021/07/29 02:58:29;;;;;;;7.33;3.90;;;16.30;99.90;;;;;;5035240;28;20990;-67
2021/07/29 03:00:56;;;;;;;4.33;3.93;;;16.40;99.90;;;;;;5035126;28;20623;-68
2021/07/29 03:03:22;;;;;;;3.73;3.47;;;16.40;99.90;;;;;;5053876;28;20622;-68
2021/07/29 03:05:48;;;;;;;3.60;3.40;;;16.40;99.90;;;;;;5054652;28;20622;-68
2021/07/29 03:08:14;;;;;;;7.73;3.77;;;16.30;99.90;;;;;;5054843;28;20661;-68
2021/07/29 03:10:45;;;;;;;4.30;3.90;;;16.30;99.90;;;;;;5054592;28;20615;-68
2021/07/29 03:13:11;;;;;;;4.20;3.70;;;16.30;99.90;;;;;;5054619;28;20615;-68
2021/07/29 03:15:37;;;;;;;4.40;3.77;;;16.30;99.90;;;;;;5054892;28;20706;-67
2021/07/29 03:18:04;;;;;;;3.97;3.50;;;16.40;99.90;;;;;;5055154;28;20619;-68
2021/07/29 03:20:30;;;;;;;3.93;3.63;;;16.40;99.90;;;;;;5054913;28;21056;-67
2021/07/29 03:22:56;;;;;;;4.77;4.37;;;16.40;99.90;;;;;;5054964;28;21184;-67
2021/07/29 03:25:22;;;;;;;4.20;3.90;;;16.40;99.90;;;;;;5053490;28;20615;-67
2021/07/29 03:27:49;;;;;;;8.23;4.10;;;16.40;99.90;;;;;;5054767;28;20665;-67
2021/07/29 03:30:16;;;;;;;4.17;3.63;;;16.40;99.90;;;;;;5054556;28;20607;-68
2021/07/29 03:32:42;;;;;;;4.77;4.37;;;16.40;99.90;;;;;;5054521;28;20635;-68
2021/07/29 03:35:09;;;;;;;5.27;4.00;;;16.30;99.90;;;;;;5054377;28;20598;-68
2021/07/29 03:37:35;;;;;;;4.50;3.93;;;16.30;99.90;;;;;;5054452;28;20631;-67
2021/07/29 03:40:05;;;;;;;4.50;3.70;;;16.30;99.90;;;;;;5054133;28;20635;-69
2021/07/29 03:42:33;;;;;;;5.93;3.77;;;16.30;99.90;;;;;;5054193;28;20583;-69
2021/07/29 03:45:01;;;;;;;3.90;3.60;;;16.30;99.90;;;;;;5054468;28;21156;-69
2021/07/29 03:47:27;;;;;;;5.90;4.17;;;16.30;99.90;;;;;;5054099;28;21234;-69
2021/07/29 03:49:54;;;;;;;4.03;3.70;;;16.40;99.90;;;;;;5053947;28;21235;-68
2021/07/29 03:52:20;;;;;;;4.10;3.80;;;16.40;99.90;;;;;;5052935;28;20953;-68
2021/07/29 03:54:51;;;;;;;4.40;3.73;;;16.40;99.90;;;;;;5053994;28;20627;-68
2021/07/29 03:57:18;;;;;;;6.00;3.40;;;16.50;99.90;;;;;;5053705;28;20646;-68
2021/07/29 03:59:45;;;;;;;4.10;3.70;;;16.50;99.90;;;;;;5053884;28;20634;-68
2021/07/29 04:02:11;;;;;;;3.70;3.20;;;16.50;99.90;;;;;;5053694;28;20595;-68
2021/07/29 04:04:39;;;;;;;5.47;3.40;;;16.50;99.90;;;;;;5053684;28;20993;-68
2021/07/29 04:07:06;;;;;;;4.70;4.27;;;16.50;99.90;;;;;;5053628;28;20662;-68
2021/07/29 04:09:33;;;;;;;5.10;3.80;;;16.50;99.90;;;;;;5053758;28;20606;-68
2021/07/29 04:12:00;;;;;;;3.67;3.47;;;16.60;99.90;;;;;;5053736;28;21253;-68
2021/07/29 04:14:26;;;;;;;3.30;2.80;;;16.50;99.90;;;;;;5053914;28;20694;-68
2021/07/29 04:16:54;;;;;;;3.57;3.33;;;16.60;99.90;;;;;;5053899;28;20603;-68
2021/07/29 04:19:21;;;;;;;5.10;3.97;;;16.60;99.90;;;;;;5054096;28;21117;-68
2021/07/29 04:21:47;;;;;;;3.87;3.60;;;16.60;99.90;;;;;;5053153;28;20626;-68
2021/07/29 04:24:14;;;;;;;3.83;3.40;;;16.60;99.90;;;;;;5053539;28;20599;-68
2021/07/29 04:26:40;;;;;;;5.47;3.60;;;16.70;99.90;;;;;;5053643;28;21020;-68
2021/07/29 04:29:07;;;;;;;5.40;3.40;;;16.70;99.90;;;;;;5053756;28;21058;-68
2021/07/29 04:31:33;;;;;;;5.93;3.37;;;16.70;99.90;;;;;;5053574;28;20947;-68
2021/07/29 04:34:00;;;;;;;3.57;3.37;;;16.70;99.90;;;;;;5053639;28;20595;-68
2021/07/29 04:36:26;;;;;;;3.57;3.30;;;16.70;99.90;;;;;;5054000;28;20622;-68
2021/07/29 04:38:52;;;;;;;6.30;3.90;;;16.70;99.90;;;;;;5053586;28;20627;-67
2021/07/29 04:41:19;;;;;;;3.60;3.30;;;16.70;99.90;;;;;;5053591;28;20629;-69
2021/07/29 04:43:46;;;;;;;7.83;4.20;;;16.80;99.90;;;;;;5052127;28;20603;-69
2021/07/29 04:46:12;;;;;;;3.90;3.47;;;16.80;99.90;;;;;;5053579;28;20619;-67
2021/07/29 04:48:38;;;;;;;7.50;3.93;;;16.90;99.90;;;;;;5053157;28;21028;-67
2021/07/29 04:51:05;;;;;;;3.50;3.20;;;17.00;99.90;;;;;;5053558;28;20609;-67
2021/07/29 04:53:33;;;;;;;3.30;3.00;;;17.00;99.90;;;;;;5053716;28;20978;-67
2021/07/29 04:56:01;;;;;;;3.03;2.83;;;17.00;99.90;;;;;;5053361;28;21175;-67
2021/07/29 04:58:27;;;;;;;7.73;4.33;;;17.10;99.90;;;;;;5053747;28;20635;-67
2021/07/29 05:00:53;;;;;;;5.50;4.00;;;17.20;99.90;;;;;;5053340;28;21230;-67
2021/07/29 05:03:20;;;;;;;7.50;4.07;;;17.20;99.90;;;;;;5053197;28;20602;-67
2021/07/29 05:05:46;;;;;;;6.00;3.73;;;17.30;99.90;;;;;;5052876;28;20615;-69
2021/07/29 05:08:12;;;;;;;3.27;3.07;;;17.30;99.90;;;;;;5053463;28;20665;-68
2021/07/29 05:10:39;;;;;;;6.63;3.30;;;17.40;99.90;;;;;;5053125;28;20954;-68
2021/07/29 05:13:05;;;;;;;3.80;3.50;;;17.40;99.90;;;;;;5053523;28;20619;-68
2021/07/29 05:15:31;;;;;;;4.43;3.40;;;17.40;99.90;;;;;;5053175;28;20946;-69
2021/07/29 05:17:58;;;;;;;6.17;3.37;;;17.40;99.90;;;;;;5053466;28;20693;-68
2021/07/29 05:20:24;;;;;;;4.43;3.20;;;17.40;99.90;;;;;;5053311;28;20630;-68
2021/07/29 05:22:50;;;;;;;4.63;3.30;;;17.50;99.90;;;;;;5051851;28;20692;-68
2021/07/29 05:25:23;;;;;;;5.73;3.70;;;17.50;99.90;;;;;;5053142;28;20647;-69
2021/07/29 05:27:50;;;;;;;3.73;3.10;;;17.50;99.90;;;;;;5053335;28;20626;-68
2021/07/29 05:30:18;;;;;;;6.57;3.07;;;17.50;99.90;;;;;;5041441;28;20600;-68
2021/07/29 05:32:45;;;;;;;4.50;3.50;;;17.50;99.90;;;;;;5050512;28;20619;-68
2021/07/29 05:35:11;;;;;;;3.63;2.87;;;17.60;99.90;;;;;;5056544;28;20630;-68
2021/07/29 05:37:38;;;;;;;3.77;3.27;;;17.60;99.90;;;;;;5056387;28;20635;-68
2021/07/29 05:40:06;;;;;;;3.27;2.43;;;17.60;99.90;;;;;;5041350;28;20631;-67
2021/07/29 05:42:33;;;;;;;3.77;3.57;;;17.60;99.90;;;;;;5055163;28;20611;-67
2021/07/29 05:45:00;;;;;;;7.53;3.73;;;17.60;99.90;;;;;;5056376;28;20616;-68
2021/07/29 05:47:26;;;;;;;4.00;3.10;;;17.70;99.90;;;;;;5044175;28;20659;-67
2021/07/29 05:49:53;;;;;;;6.17;3.60;;;17.80;99.90;;;;;;5053954;28;20658;-68
2021/07/29 05:52:19;;;;;;;6.50;3.63;;;17.80;99.90;;;;;;5055922;28;20611;-68
2021/07/29 05:54:46;;;;;;;4.10;3.00;;;17.80;99.90;;;;;;5055859;28;20633;-67
2021/07/29 05:57:12;;;;;;;3.07;2.57;;;17.90;99.90;;;;;;5056032;28;20614;-67
2021/07/29 05:59:38;;;;;;;6.70;2.83;;;17.80;99.90;;;;;;5056027;28;20642;-67
2021/07/29 06:02:05;;;;;;;19.17;5.30;;;17.90;99.90;;;;;;5056087;28;20626;-68
2021/07/29 06:04:32;;;;;;;7.50;4.40;;;17.90;99.90;;;;;;5056060;28;20653;-67
2021/07/29 06:06:59;;;;;;;5.67;3.83;;;17.90;99.90;;;;;;5055702;28;20618;-68
2021/07/29 06:09:25;;;;;;;5.60;3.40;;;17.90;99.90;;;;;;5056726;28;20645;-68
2021/07/29 06:11:52;;;;;;;6.53;3.20;;;17.90;99.90;;;;;;5055759;28;20631;-68
2021/07/29 06:14:18;;;;;;;3.30;3.00;;;18.00;99.90;;;;;;5055384;28;20973;-68
2021/07/29 06:16:44;;;;;;;5.83;4.00;;;18.00;99.90;;;;;;5055086;28;20706;-68
2021/07/29 06:19:17;;;;;;;9.20;3.43;;;18.10;99.90;;;;;;5055657;28;20649;-67
2021/07/29 06:21:43;;;;;;;7.20;3.80;;;18.10;99.90;;;;;;5055821;28;20634;-68
2021/07/29 06:24:09;;;;;;;10.77;3.50;;;18.10;99.90;;;;;;5041900;28;20615;-67
2021/07/29 06:26:37;;;;;;;7.50;3.77;;;18.20;99.90;;;;;;5055865;28;20623;-67
2021/07/29 06:29:06;;;;;;;6.57;3.70;;;18.30;99.90;;;;;;5055028;28;20657;-68
2021/07/29 06:31:33;;;;;;;27.97;4.63;;;18.30;99.90;;;;;;5055147;28;20615;-68
2021/07/29 06:33:59;;;;;;;7.83;3.87;;;18.20;99.90;;;;;;5055039;28;20607;-68
2021/07/29 06:36:26;;;;;;;12.17;3.70;;;18.30;99.90;;;;;;5055402;28;20630;-68
2021/07/29 06:38:52;;;;;;;3.80;3.40;;;18.30;99.90;;;;;;5054860;28;20650;-67
2021/07/29 06:41:18;;;;;;;9.73;4.20;;;18.30;99.90;;;;;;5055192;28;20611;-67
2021/07/29 06:43:45;;;;;;;11.43;4.90;;;18.40;99.90;;;;;;5054577;28;20622;-68
2021/07/29 06:46:11;;;;;;;20.80;4.53;;;18.40;99.90;;;;;;5053314;28;20617;-68
2021/07/29 06:48:38;;;;;;;3.50;3.13;;;18.50;99.90;;;;;;5042087;28;20663;-67
2021/07/29 06:51:05;;;;;;;4.50;2.93;;;18.50;99.90;;;;;;5054558;28;20614;-68
2021/07/29 06:53:34;;;;;;;2.73;2.53;;;18.50;99.90;;;;;;5054749;28;20627;-67
2021/07/29 06:56:01;;;;;;;3.30;3.00;;;18.60;99.90;;;;;;5054957;28;20627;-67
2021/07/29 06:58:27;;;;;;;5.13;3.10;;;18.60;99.90;;;;;;5054587;28;20623;-67
2021/07/29 07:00:54;;;;;;;6.50;2.90;;;18.70;99.90;;;;;;5053019;28;20630;-68
2021/07/29 07:03:20;;;;;;;3.33;2.97;;;18.90;99.90;;;;;;5054816;28;20630;-67
2021/07/29 07:05:47;;;;;;;5.50;2.63;;;18.90;99.90;;;;;;5054450;28;20618;-68
2021/07/29 07:08:14;;;;;;;3.43;2.90;;;18.90;99.90;;;;;;5054305;28;20730;-67
2021/07/29 07:10:41;;;;;;;10.10;2.70;;;19.00;99.90;;;;;;5054585;28;20986;-67
2021/07/29 07:13:08;;;;;;;10.20;3.90;;;19.20;99.90;;;;;;5054707;28;20642;-67
2021/07/29 07:15:34;;;;;;;16.33;4.53;;;19.30;99.90;;;;;;5054740;28;20619;-68
2021/07/29 07:18:00;;;;;;;6.73;2.90;;;19.30;99.90;;;;;;5053143;28;20627;-68
2021/07/29 07:20:27;;;;;;;7.80;4.20;;;19.20;99.90;;;;;;5054698;28;20631;-67
2021/07/29 07:22:54;;;;;;;11.87;4.03;;;19.40;99.90;;;;;;5054214;28;21434;-66
2021/07/29 07:25:20;;;;;;;3.17;2.87;;;19.40;99.90;;;;;;5054172;28;20635;-67
2021/07/29 07:27:46;;;;;;;3.40;3.10;;;19.30;99.90;;;;;;5054220;28;20654;-67
2021/07/29 07:30:13;;;;;;;9.47;4.97;;;19.40;99.90;;;;;;5054523;28;20619;-67
2021/07/29 07:32:39;;;;;;;27.53;6.77;;;19.50;99.90;;;;;;5054808;28;20618;-67
2021/07/29 07:35:06;;;;;;;3.27;2.90;;;19.70;99.90;;;;;;5054723;28;20622;-67
2021/07/29 07:37:32;;;;;;;5.80;2.80;;;19.50;99.90;;;;;;5054181;28;20627;-67
2021/07/29 07:39:58;;;;;;;3.27;2.70;;;19.50;99.90;;;;;;5054030;28;20965;-67
2021/07/29 07:42:25;;;;;;;4.00;2.80;;;19.60;99.90;;;;;;5054073;28;20626;-67
2021/07/29 07:44:55;;;;;;;7.57;3.90;;;19.60;99.90;;;;;;5053707;28;20614;-67
2021/07/29 07:47:21;;;;;;;3.43;2.77;;;19.70;99.90;;;;;;5054032;28;20702;-67
2021/07/29 07:49:48;;;;;;;7.73;3.20;;;19.90;99.90;;;;;;5053437;28;21057;-67
2021/07/29 07:52:14;;;;;;;12.00;4.13;;;20.00;99.90;;;;;;5054414;28;20701;-67
2021/07/29 07:54:40;;;;;;;5.70;3.63;;;19.90;99.90;;;;;;5054415;28;20615;-67
2021/07/29 07:57:07;;;;;;;17.83;3.20;;;19.90;99.90;;;;;;5053378;28;21161;-67
2021/07/29 07:59:38;;;;;;;4.13;2.63;;;20.00;99.90;;;;;;5053798;28;20637;-67
2021/07/29 08:02:05;;;;;;;5.77;2.60;;;20.10;99.90;;;;;;5054312;28;20964;-67
2021/07/29 08:04:32;;;;;;;4.40;3.00;;;20.30;99.90;;;;;;5054564;28;21082;-67
2021/07/29 08:06:58;;;;;;;6.30;2.40;;;20.00;99.90;;;;;;5053656;28;20661;-67
2021/07/29 08:09:25;;;;;;;6.07;3.70;;;20.00;99.90;;;;;;5053542;28;20653;-67
2021/07/29 08:11:52;;;;;;;5.93;3.00;;;20.20;99.90;;;;;;5053927;28;20638;-67
2021/07/29 08:14:18;;;;;;;3.97;2.60;;;20.30;99.90;;;;;;5053561;28;20609;-67
2021/07/29 08:16:44;;;;;;;6.63;3.17;;;20.60;99.90;;;;;;5053493;28;20602;-67
2021/07/29 08:19:10;;;;;;;4.90;3.27;;;20.40;96.00;;;;;;5053722;28;20623;-67
2021/07/29 08:21:37;;;;;;;2.43;2.33;;;20.50;93.20;;;;;;5053643;28;20612;-67
2021/07/29 08:24:04;;;;;;;2.67;2.47;;;20.50;99.00;;;;;;5053793;28;20607;-67
2021/07/29 08:26:30;;;;;;;2.27;2.17;;;20.50;99.20;;;;;;5053767;28;20611;-67
2021/07/29 08:28:57;;;;;;;5.50;3.03;;;20.70;94.20;;;;;;5053832;28;21212;-68
2021/07/29 08:31:24;;;;;;;3.73;3.07;;;20.60;99.90;;;;;;5053581;28;20709;-67
2021/07/29 08:33:50;;;;;;;3.10;2.90;;;20.40;54.80;;;;;;5053489;28;21149;-68
2021/07/29 08:36:19;;;;;;;9.83;3.40;;;20.50;37.30;;;;;;5053582;28;20620;-69
2021/07/29 08:38:47;;;;;;;10.30;3.40;;;20.50;75.30;;;;;;5054026;28;20993;-68
2021/07/29 08:41:18;;;;;;;5.27;3.00;;;20.60;72.10;;;;;;5054500;28;20634;-68
2021/07/29 08:43:45;;;;;;;9.60;3.83;;;20.60;98.80;;;;;;5054625;28;20650;-68
2021/07/29 08:46:21;;;;;;;4.23;2.77;;;20.70;96.00;;;;;;5053789;28;20698;-67
2021/07/29 08:48:50;;;;;;;3.43;3.00;;;20.50;47.50;;;;;;5053233;28;20677;-67
2021/07/29 08:51:23;;;;;;;3.60;3.10;;;20.50;37.30;;;;;;5053399;28;21157;-67
2021/07/29 08:53:51;;;;;;;2.83;2.63;;;20.70;44.80;;;;;;5054161;28;20625;-68
2021/07/29 08:56:23;;;;;;;3.70;2.70;;;20.60;12.50;;;;;;5055138;28;20604;-67
2021/07/29 08:58:53;;;;;;;23.97;4.77;;;20.50;56.30;;;;;;5054497;28;20579;-67
2021/07/29 09:01:20;;;;;;;4.23;3.07;;;20.50;57.10;;;;;;5054572;28;20637;-68
2021/07/29 09:03:52;;;;;;;5.33;2.97;;;20.50;62.30;;;;;;5053751;28;20626;-68
2021/07/29 09:06:18;;;;;;;14.83;5.03;;;20.60;28.80;;;;;;5053318;28;21173;-68
2021/07/29 09:08:45;;;;;;;10.83;2.80;;;20.60;31.30;;;;;;5057758;28;20647;-67
2021/07/29 09:11:35;;;;;;;2.33;2.13;;;20.60;62.10;;;;;;5059128;28;20631;-68
2021/07/29 09:14:14;;;;;;;6.43;3.93;;;20.90;12.10;;;;;;5057034;28;20626;-68
2021/07/29 09:17:04;;;;;;;11.40;3.57;;;20.80;15.30;;;;;;5058609;28;20608;-68
2021/07/29 09:19:31;;;;;;;5.20;3.40;;;20.70;2.00;;;;;;5057576;28;20576;-68
2021/07/29 09:22:12;;;;;;;2.33;2.13;;;20.50;5.20;;;;;;5057347;28;20983;-68
2021/07/29 09:25:12;;;;;;;6.93;2.97;;;20.60;3.00;;;;;;5057024;28;21129;-68
2021/07/29 09:27:38;;;;;;;6.87;2.90;;;20.70;1.00;;;;;;5056767;28;20634;-68
2021/07/29 09:30:13;;;;;;;6.90;3.17;;;20.70;1.00;;;;;;5057127;28;21134;-67
2021/07/29 09:32:59;;;;;;;2.60;2.40;;;20.60;1.00;;;;;;5057138;28;20630;-68
2021/07/29 09:35:28;;;;;;;5.57;2.70;;;20.80;1.00;;;;;;5057136;28;20618;-68
2021/07/29 09:37:55;;;;;;;2.40;2.30;;;20.90;1.00;;;;;;5057250;28;21192;-67
2021/07/29 09:40:22;;;;;;;3.30;2.67;;;20.90;1.00;;;;;;5056576;28;20615;-68
2021/07/29 09:43:07;;;;;;;4.93;2.33;;;20.80;1.00;;;;;;5056700;28;20591;-67
2021/07/29 09:45:34;;;;;;;2.87;2.60;;;21.00;1.00;;;;;;5055539;28;20614;-67
2021/07/29 09:48:00;;;;;;;2.07;1.97;;;21.00;1.00;;;;;;5056504;28;20662;-67
2021/07/29 09:50:27;;;;;;;2.93;2.63;;;21.30;1.00;;;;;;5056713;28;20585;-67
2021/07/29 09:52:54;;;;;;;2.90;2.53;;;21.90;1.00;;;;;;5056669;28;20621;-66
2021/07/29 09:55:22;;;;;;;5.33;2.57;;;22.10;1.00;;;;;;5056557;28;20626;-67
2021/07/29 09:57:48;;;;;;;2.20;2.10;;;22.30;1.00;;;;;;5041072;28;20619;-66
2021/07/29 10:00:15;;;;;;;2.80;2.57;;;22.80;1.00;;;;;;5056008;28;20619;-66
2021/07/29 10:02:43;;;;;;;2.23;2.07;;;22.80;1.00;;;;;;5048454;28;20612;-66
2021/07/29 10:05:11;;;;;;;3.40;2.37;;;22.40;1.00;;;;;;5046880;28;20623;-67
2021/07/29 10:07:40;;;;;;;3.47;2.50;;;22.50;1.00;;;;;;5056451;28;20610;-66
2021/07/29 10:10:09;;;;;;;2.97;2.80;;;22.70;1.00;;;;;;5056406;28;20619;-66
2021/07/29 10:12:36;;;;;;;2.20;2.10;;;22.50;1.00;;;;;;5056143;28;20622;-67
2021/07/29 10:15:03;;;;;;;3.03;2.73;;;22.40;1.00;;;;;;5056045;28;20595;-67
2021/07/29 10:17:36;;;;;;;2.40;2.20;;;23.00;1.00;;;;;;5056395;28;21125;-67
2021/07/29 10:20:16;;;;;;;2.23;2.07;;;23.10;1.00;;;;;;5055242;28;20614;-67
2021/07/29 10:23:09;;;;;;;2.60;2.40;;;22.50;1.00;;;;;;5056291;28;20626;-67
2021/07/29 10:25:54;;;;;;;5.30;2.30;;;22.20;1.00;;;;;;5043768;28;20982;-67
2021/07/29 10:28:25;;;;;;;2.33;2.23;;;22.60;1.00;;;;;;5054963;28;20667;-68
2021/07/29 10:31:00;;;;;;;2.27;2.17;;;22.20;1.00;;;;;;5055191;28;21041;-68
2021/07/29 10:33:28;;;;;;;5.40;2.23;;;22.00;1.00;;;;;;5055291;28;20630;-67
2021/07/29 10:35:56;;;;;;;2.60;2.40;;;22.10;1.00;;;;;;5055778;28;21156;-67
2021/07/29 10:38:42;;;;;;;3.00;2.80;;;21.90;1.00;;;;;;5055239;28;20630;-67
2021/07/29 10:41:23;;;;;;;3.33;2.63;;;22.10;1.00;;;;;;5055345;28;20627;-68
2021/07/29 10:43:50;;;;;;;7.17;2.67;;;22.60;1.00;;;;;;5055116;28;20618;-67
2021/07/29 10:46:17;;;;;;;2.90;2.73;;;22.90;1.00;;;;;;5055362;28;20622;-68
2021/07/29 10:48:47;;;;;;;2.70;2.50;;;23.00;1.00;;;;;;5053074;28;20682;-68
2021/07/29 10:51:17;;;;;;;2.67;2.43;;;23.60;1.00;;;;;;5055187;28;20622;-68
2021/07/29 10:53:48;;;;;;;3.10;2.80;;;23.80;1.00;;;;;;5054600;28;20616;-68
2021/07/29 10:56:16;;;;;;;5.87;2.70;;;23.30;1.00;;;;;;5054680;28;20599;-67
2021/07/29 10:58:44;;;;;;;3.67;3.27;;;22.70;1.00;;;;;;5055386;28;21164;-68
2021/07/29 11:01:13;;;;;;;2.87;2.67;;;22.50;1.00;;;;;;5044325;28;20980;-68
2021/07/29 11:03:46;;;;;;;2.40;2.27;;;22.50;1.00;;;;;;5051034;28;20627;-68
2021/07/29 11:06:40;;;;;;;3.07;2.87;;;22.50;1.00;;;;;;5054782;28;20615;-67
2021/07/29 11:09:16;;;;;;;3.17;2.80;;;23.00;1.00;;;;;;5054483;28;20622;-68
2021/07/29 11:11:45;;;;;;;3.00;2.80;;;22.50;1.00;;;;;;5054558;28;20698;-68
2021/07/29 11:14:12;;;;;;;6.87;2.50;;;23.10;1.00;;;;;;5054672;28;20671;-68
2021/07/29 11:16:39;;;;;;;3.43;3.13;;;23.20;1.00;;;;;;5054280;28;20971;-68
2021/07/29 11:19:06;;;;;;;4.43;3.00;;;23.10;1.00;;;;;;5054276;28;20659;-68
2021/07/29 11:21:33;;;;;;;2.80;2.50;;;22.90;1.00;;;;;;5054450;28;20649;-67
2021/07/29 11:24:00;;;;;;;2.80;2.60;;;23.00;1.00;;;;;;5054440;28;20631;-67
2021/07/29 11:26:40;;;;;;;2.67;2.47;;;23.00;1.00;;;;;;5035785;28;20630;-68
2021/07/29 11:29:08;;;;;;;2.90;2.70;;;22.80;1.00;;;;;;5034599;28;20642;-67
2021/07/29 11:31:39;;;;;;;3.17;2.80;;;22.70;1.00;;;;;;5052522;28;20642;-67
2021/07/29 11:34:06;;;;;;;9.87;3.20;;;22.70;1.00;;;;;;5054385;28;20631;-67
2021/07/29 11:36:34;;;;;;;3.10;2.80;;;23.00;1.00;;;;;;5053789;28;20985;-67
2021/07/29 11:39:05;;;;;;;4.30;2.60;;;23.40;1.00;;;;;;5054177;28;20657;-67
2021/07/29 11:41:52;;;;;;;3.83;2.50;;;23.50;1.00;;;;;;5053925;28;20641;-68
2021/07/29 11:44:19;;;;;;;2.97;2.77;;;24.10;1.00;;;;;;5054363;28;20986;-68
2021/07/29 11:46:56;;;;;;;2.50;2.30;;;25.10;99.90;;;;;;5054517;28;20618;-68
2021/07/29 11:49:23;;;;;;;2.90;2.43;;;25.30;99.90;;;;;;5054084;28;20665;-68
2021/07/29 11:52:06;;;;;;;2.83;2.63;;;24.90;99.90;;;;;;5054555;28;21134;-68
2021/07/29 11:54:33;;;;;;;11.13;3.30;;;24.90;99.90;;;;;;5054113;28;20664;-68
2021/07/29 11:56:59;;;;;;;5.90;2.73;;;24.70;74.30;;;;;;5054476;28;20618;-68
2021/07/29 11:59:37;;;;;;;3.50;2.93;;;24.50;99.90;;;;;;5054228;28;20611;-68
2021/07/29 12:02:04;;;;;;;8.57;3.13;;;24.00;45.20;;;;;;5053988;28;20555;-68
2021/07/29 12:04:34;;;;;;;3.07;2.23;;;24.20;61.40;;;;;;5054000;28;20600;-68
2021/07/29 12:07:02;;;;;;;3.23;3.00;;;23.90;94.10;;;;;;5054034;28;20595;-68
2021/07/29 12:09:29;;;;;;;69.33;7.63;;;24.50;1.00;;;;;;5054077;28;20662;-68
2021/07/29 12:11:56;;;;;;;26.10;4.70;;;24.50;1.00;;;;;;5054126;28;21137;-68
2021/07/29 12:14:22;;;;;;;2.87;2.43;;;24.20;1.00;;;;;;5053712;28;20621;-68
2021/07/29 12:16:52;;;;;;;3.13;2.60;;;23.80;1.00;;;;;;5053886;28;20623;-68
2021/07/29 12:19:19;;;;;;;7.07;3.90;;;23.90;1.00;;;;;;5053850;28;21138;-68
2021/07/29 12:21:47;;;;;;;4.03;2.50;;;24.40;13.30;;;;;;5054248;28;21212;-67
2021/07/29 12:24:14;;;;;;;10.67;3.93;;;25.20;99.90;;;;;;5049598;28;20638;-67
2021/07/29 12:26:41;;;;;;;2.93;2.60;;;25.70;99.90;;;;;;5053772;28;20594;-67
2021/07/29 12:29:09;;;;;;;4.10;2.93;;;25.60;99.90;;;;;;5053893;28;20659;-67
2021/07/29 12:31:43;;;;;;;3.43;2.60;;;25.90;99.90;;;;;;5053730;28;20619;-67
2021/07/29 12:34:10;;;;;;;4.17;2.83;;;26.10;99.90;;;;;;5053709;28;20630;-69
2021/07/29 12:36:47;;;;;;;2.67;2.47;;;26.00;99.90;;;;;;5053597;28;21125;-68
2021/07/29 12:39:16;;;;;;;6.00;3.60;;;26.50;99.90;;;;;;5053243;28;20626;-68
2021/07/29 12:41:44;;;;;;;2.60;2.50;;;26.00;99.90;;;;;;5053186;28;20638;-67
2021/07/29 12:44:19;;;;;;;2.70;2.50;;;26.20;99.90;;;;;;5053426;28;20634;-67
2021/07/29 12:46:47;;;;;;;3.73;2.30;;;25.60;99.90;;;;;;5053176;28;20606;-67
2021/07/29 12:49:15;;;;;;;3.13;2.60;;;26.00;99.90;;;;;;5053308;28;20654;-67
2021/07/29 12:51:51;;;;;;;2.50;2.23;;;25.90;99.90;;;;;;5053507;28;20623;-67
2021/07/29 12:54:20;;;;;;;3.00;2.47;;;25.10;99.90;;;;;;5053835;28;20646;-67